Time;durP1;ratioP1;P1;durP2;ratioP2;P2;SDS_P1;SDS_P2;PMS_P1;PMS_P2;Temp;Humidity;BMP_temperature;BMP_pressure;BME280_temperature;BME280_humidity;BME280_pressure;Samples;Min_cycle;Max_cycle;Signal;HPM_P1;HPM_P2
2022/04/20 03:01:48;;;;;;;14.10;7.10;;;;;;;;;;6278691;22;20189;-89
2022/04/20 03:04:57;;;;;;;13.40;7.50;;;;;;;;;;6274927;22;20185;-91
2022/04/20 03:08:03;;;;;;;14.07;7.50;;;;;;;;;;6293465;22;20174;-90
2022/04/20 03:11:09;;;;;;;13.43;7.97;;;;;;;;;;6275704;22;20197;-89
2022/04/20 03:14:18;;;;;;;13.27;7.83;;;;;;;;;;6293779;22;20162;-90
2022/04/20 03:18:05;;;;;;;16.67;8.30;;;;;;;;;;6295463;22;20157;-91
2022/04/20 03:21:12;;;;;;;15.20;7.90;;;;;;;;;;6276814;22;20216;-90
2022/04/20 03:24:17;;;;;;;15.77;8.60;;;;;;;;;;6294955;22;20656;-93
2022/04/20 03:27:32;;;;;;;16.10;8.77;;;;;;;;;;6293802;22;20221;-89
2022/04/20 03:30:41;;;;;;;40.13;9.07;;;;;;;;;;6275475;22;20166;-90
2022/04/20 03:33:46;;;;;;;21.90;8.20;;;;;;;;;;6295097;22;20150;-90
2022/04/20 03:36:54;;;;;;;14.07;8.17;;;;;;;;;;6295219;22;20216;-90
2022/04/20 03:40:02;;;;;;;13.97;7.77;;;;;;;;;;6294789;22;20174;-90
2022/04/20 03:43:08;;;;;;;15.13;8.40;;;;;;;;;;6296026;22;20188;-91
2022/04/20 03:46:13;;;;;;;13.83;7.63;;;;;;;;;;6277028;22;20189;-91
2022/04/20 03:49:19;;;;;;;15.97;8.20;;;;;;;;;;6293658;22;20212;-89
2022/04/20 03:52:27;;;;;;;18.20;8.80;;;;;;;;;;6279283;22;20166;-89
2022/04/20 03:55:32;;;;;;;17.83;8.63;;;;;;;;;;6296488;22;20174;-90
2022/04/20 03:58:38;;;;;;;15.60;8.00;;;;;;;;;;6296776;22;20166;-90
2022/04/20 04:01:53;;;;;;;24.43;9.00;;;;;;;;;;6295876;22;20173;-90
2022/04/20 04:05:00;;;;;;;17.10;8.13;;;;;;;;;;6282325;22;20177;-88
2022/04/20 04:08:20;;;;;;;17.17;9.17;;;;;;;;;;6265602;22;20175;-91
2022/04/20 04:11:25;;;;;;;19.47;9.13;;;;;;;;;;6264355;22;20178;-89
2022/04/20 04:14:30;;;;;;;13.70;8.27;;;;;;;;;;6265057;22;20145;-90
2022/04/20 04:21:56;;;;;;;16.57;9.23;;;;;;;;;;6265376;22;20150;-91
2022/04/20 04:25:03;;;;;;;14.17;8.10;;;;;;;;;;6265679;22;20213;-89
2022/04/20 04:28:09;;;;;;;13.97;8.00;;;;;;;;;;6264591;23;20150;-90
2022/04/20 04:31:19;;;;;;;13.87;7.77;;;;;;;;;;6266450;22;20165;-90
2022/04/20 04:34:24;;;;;;;16.57;8.67;;;;;;;;;;6265835;22;20170;-90
2022/04/20 04:37:30;;;;;;;20.60;9.43;;;;;;;;;;6265016;22;20622;-89
2022/04/20 04:40:49;;;;;;;19.13;10.00;;;;;;;;;;6264665;22;20226;-90
2022/04/20 04:43:54;;;;;;;17.50;9.23;;;;;;;;;;6264627;22;20158;-90
2022/04/20 04:50:29;;;;;;;16.47;7.87;;;;;;;;;;6282696;22;20185;-89
2022/04/20 04:53:35;;;;;;;17.07;9.20;;;;;;;;;;6263485;22;20478;-91
2022/04/20 04:56:42;;;;;;;17.17;8.07;;;;;;;;;;6263251;22;20162;-91
2022/04/20 04:59:47;;;;;;;31.03;9.20;;;;;;;;;;6262578;22;20684;-90
2022/04/20 05:02:55;;;;;;;17.70;8.60;;;;;;;;;;6272091;22;20216;-91
2022/04/20 05:06:02;;;;;;;18.70;8.27;;;;;;;;;;6293874;22;20198;-89
2022/04/20 05:09:44;;;;;;;33.63;8.60;;;;;;;;;;6294175;22;20185;-91
2022/04/20 05:12:53;;;;;;;43.90;8.93;;;;;;;;;;6276259;22;20165;-92
2022/04/20 05:15:59;;;;;;;19.40;8.27;;;;;;;;;;6293998;22;20161;-91
2022/04/20 05:23:00;;;;;;;19.77;10.10;;;;;;;;;;6296426;22;20168;-90
2022/04/20 05:26:07;;;;;;;23.77;10.00;;;;;;;;;;6277860;22;20257;-90
2022/04/20 05:29:20;;;;;;;20.00;9.50;;;;;;;;;;6279420;22;20546;-91
2022/04/20 05:32:46;;;;;;;20.30;9.47;;;;;;;;;;6296516;22;20181;-90
2022/04/20 05:35:56;;;;;;;17.30;9.30;;;;;;;;;;6278294;22;20167;-89
2022/04/20 05:42:28;;;;;;;18.23;9.07;;;;;;;;;;6297117;22;20198;-90
2022/04/20 05:45:36;;;;;;;20.27;10.13;;;;;;;;;;6298602;22;20190;-91
2022/04/20 05:48:57;;;;;;;17.63;8.73;;;;;;;;;;6298627;22;20169;-91
2022/04/20 05:52:04;;;;;;;21.30;9.83;;;;;;;;;;6296556;22;20165;-90
2022/04/20 05:55:10;;;;;;;19.13;10.13;;;;;;;;;;6283088;22;20220;-90
2022/04/20 05:58:18;;;;;;;19.30;10.03;;;;;;;;;;6279211;22;20193;-90
2022/04/20 06:01:26;;;;;;;19.13;8.40;;;;;;;;;;6297226;22;20161;-89
2022/04/20 06:04:41;;;;;;;21.37;9.37;;;;;;;;;;6297914;22;20226;-91
2022/04/20 06:08:04;;;;;;;19.13;9.90;;;;;;;;;;6295272;22;20169;-90
2022/04/20 06:11:30;;;;;;;17.63;9.80;;;;;;;;;;6297955;22;20489;-91
2022/04/20 06:14:36;;;;;;;19.03;10.57;;;;;;;;;;6295933;22;20194;-90
2022/04/20 06:18:09;;;;;;;17.97;9.60;;;;;;;;;;6297613;22;20301;-91
2022/04/20 06:21:18;;;;;;;21.93;10.90;;;;;;;;;;6278505;22;20236;-90
2022/04/20 06:24:50;;;;;;;22.47;11.20;;;;;;;;;;6298242;22;20213;-90
2022/04/20 06:28:17;;;;;;;20.60;9.93;;;;;;;;;;6296841;22;20169;-90
2022/04/20 06:31:35;;;;;;;21.70;10.60;;;;;;;;;;6295851;22;20178;-90
2022/04/20 06:35:22;;;;;;;20.03;10.73;;;;;;;;;;6297906;22;20158;-91
2022/04/20 06:39:25;;;;;;;19.20;9.80;;;;;;;;;;6299432;22;20170;-90
2022/04/20 06:42:47;;;;;;;19.53;10.90;;;;;;;;;;6280508;22;20185;-91
2022/04/20 06:46:16;;;;;;;29.43;14.63;;;;;;;;;;6279893;22;20224;-90
2022/04/20 06:49:55;;;;;;;26.27;13.73;;;;;;;;;;6278469;22;20166;-90
2022/04/20 07:00:19;;;;;;;20.13;10.27;;;;;;;;;;6295964;22;20474;-91
2022/04/20 07:03:44;;;;;;;14.10;9.10;;;;;;;;;;6298510;22;20212;-92
2022/04/20 07:07:21;;;;;;;14.63;8.65;;;;;;;;;;6298116;22;20193;-92
2022/04/20 07:10:50;;;;;;;17.85;9.48;;;;;;;;;;6294941;22;20230;-90
2022/04/20 07:14:05;;;;;;;13.88;7.70;;;;;;;;;;6283001;22;20217;-92
2022/04/20 07:17:13;;;;;;;19.70;8.63;;;;;;;;;;6296716;22;20173;-91
2022/04/20 07:20:26;;;;;;;15.80;7.28;;;;;;;;;;6298276;22;20169;-89
2022/04/20 07:23:45;;;;;;;11.45;7.20;;;;;;;;;;6294723;22;20240;-90
2022/04/20 07:27:23;;;;;;;12.45;6.78;;;;;;;;;;6295106;22;20244;-90
2022/04/20 07:30:58;;;;;;;10.23;6.57;;;;;;;;;;6260255;22;20190;-91
2022/04/20 07:34:23;;;;;;;11.57;6.63;;;;;;;;;;6298720;22;20201;-90
2022/04/20 07:37:50;;;;;;;14.98;6.97;;;;;;;;;;6280138;22;20553;-88
2022/04/20 07:41:16;;;;;;;15.98;7.15;;;;;;;;;;6295465;22;20218;-89
2022/04/20 07:44:48;;;;;;;12.07;6.72;;;;;;;;;;6287819;22;20197;-89
2022/04/20 07:48:15;;;;;;;11.10;7.20;;;;;;;;;;6296061;22;20200;-89
2022/04/20 07:51:45;;;;;;;12.25;7.18;;;;;;;;;;6296980;22;20161;-91
2022/04/20 07:55:15;;;;;;;12.68;7.22;;;;;;;;;;6280342;22;20162;-90
2022/04/20 07:58:26;;;;;;;11.02;6.38;;;;;;;;;;6282473;22;20158;-90
2022/04/20 08:01:52;;;;;;;10.02;6.93;;;;;;;;;;6296202;22;20170;-92
2022/04/20 08:05:27;;;;;;;10.05;6.45;;;;;;;;;;6297230;22;20244;-90
2022/04/20 08:08:36;;;;;;;9.85;6.22;;;;;;;;;;6297372;22;20186;-91
2022/04/20 08:11:52;;;;;;;9.27;6.13;;;;;;;;;;6295992;22;20150;-91
2022/04/20 08:15:04;;;;;;;8.18;5.15;;;;;;;;;;6298838;22;20240;-91
2022/04/20 08:18:20;;;;;;;8.43;4.65;;;;;;;;;;6300058;22;20169;-91
2022/04/20 08:21:45;;;;;;;6.43;3.95;;;;;;;;;;6298818;22;20149;-90
2022/04/20 08:24:55;;;;;;;6.78;4.22;;;;;;;;;;6298816;22;20193;-91
2022/04/20 08:28:01;;;;;;;5.88;3.88;;;;;;;;;;6298160;22;20228;-91
2022/04/20 08:31:08;;;;;;;5.40;3.45;;;;;;;;;;6298004;22;20224;-90
2022/04/20 08:34:15;;;;;;;5.57;3.10;;;;;;;;;;6282179;22;20189;-91
2022/04/20 08:37:21;;;;;;;6.97;4.20;;;;;;;;;;6298308;22;20185;-92
2022/04/20 08:40:30;;;;;;;4.30;2.65;;;;;;;;;;6299538;22;20177;-91
2022/04/20 08:43:37;;;;;;;4.78;2.97;;;;;;;;;;6296535;22;20210;-91
2022/04/20 08:46:44;;;;;;;4.97;3.00;;;;;;;;;;6277479;22;20193;-90
2022/04/20 08:49:51;;;;;;;4.68;3.25;;;;;;;;;;6280329;22;20195;-91
2022/04/20 08:52:58;;;;;;;9.07;2.95;;;;;;;;;;6298166;22;20166;-91
